createdAt,value
2023-05-09T00:08:29.970Z,96319.19
2023-05-09T00:18:33.998Z,96316.50
2023-05-09T00:28:37.861Z,96307.84
2023-05-09T00:38:40.234Z,96303.50
2023-05-09T00:48:44.120Z,96294.91
2023-05-09T00:58:46.650Z,96284.13
2023-05-09T01:08:54.762Z,96284.66
2023-05-09T01:19:01.965Z,96276.59
2023-05-09T01:29:18.867Z,96272.31
2023-05-09T01:39:22.774Z,96263.13
2023-05-09T01:49:27.168Z,96262.56
2023-05-09T01:59:30.570Z,96254.47
2023-05-09T02:09:34.345Z,96261.19
2023-05-09T02:19:36.849Z,96262.19
2023-05-09T02:29:44.332Z,96257.63
2023-05-09T02:39:46.877Z,96243.31
2023-05-09T02:49:50.841Z,96241.69
2023-05-09T02:59:53.302Z,96227.41
2023-05-09T03:09:57.037Z,96221.44
2023-05-09T03:20:01.034Z,96217.63
2023-05-09T03:30:08.201Z,96218.44
2023-05-09T03:40:10.993Z,96196.63
2023-05-09T03:50:14.724Z,96197.75
2023-05-09T04:00:17.418Z,96192.13
2023-05-09T04:10:21.254Z,96195.78
2023-05-09T04:20:23.795Z,96196.50
2023-05-09T04:30:27.934Z,96199.84
2023-05-09T04:40:30.744Z,96192.81
2023-05-09T04:50:34.510Z,96190.19
2023-05-09T05:00:36.932Z,96187.72
2023-05-09T05:10:40.683Z,96182.66
2023-05-09T05:20:43.552Z,96180.03
2023-05-09T05:30:47.431Z,96165.53
2023-05-09T05:40:49.819Z,96189.84
2023-05-09T05:50:53.577Z,96176.16
2023-05-09T06:00:56.054Z,96176.16
2023-05-09T06:11:01.430Z,96168.13
2023-05-09T06:21:04.261Z,96153.88
2023-05-09T06:31:08.186Z,96149.03
2023-05-09T06:41:10.738Z,96153.66
2023-05-09T06:51:14.497Z,96151.75
2023-05-09T07:01:16.893Z,96132.66
2023-05-09T07:11:21.094Z,96119.69
2023-05-09T07:21:23.700Z,96107.03
2023-05-09T07:31:27.852Z,96098.94
2023-05-09T07:41:30.336Z,96074.66
2023-05-09T07:51:34.265Z,96065.41
2023-05-09T08:01:36.641Z,96058.63
2023-05-09T08:11:40.807Z,96040.47
2023-05-09T08:21:44.354Z,96030.19
2023-05-09T08:31:48.179Z,96016.28
2023-05-09T08:41:50.807Z,96009.19
2023-05-09T08:51:54.687Z,96008.94
2023-05-09T09:01:57.561Z,96000.41
2023-05-09T09:12:01.999Z,95991.44
2023-05-09T09:22:05.644Z,95978.78
2023-05-09T09:32:09.501Z,95968.91
2023-05-09T09:42:12.402Z,95953.50
2023-05-09T09:52:23.446Z,95935.16
2023-05-09T10:02:25.873Z,95921.41
2023-05-09T10:12:31.280Z,95904.09
2023-05-09T10:22:34.131Z,95894.22
2023-05-09T10:32:44.593Z,95868.47
2023-05-09T10:42:47.039Z,95869.81
2023-05-09T10:53:14.212Z,95847.47
2023-05-09T11:03:17.062Z,95833.00
2023-05-09T11:13:23.516Z,95815.38
2023-05-09T11:23:27.436Z,95792.19
2023-05-09T11:33:31.943Z,95775.22
2023-05-09T11:43:34.492Z,95767.13
2023-05-09T11:53:44.935Z,95754.75
2023-05-09T12:03:47.499Z,95726.31
2023-05-09T12:13:53.486Z,95713.50
2023-05-09T12:23:56.621Z,95693.13
2023-05-09T12:34:00.614Z,95683.56
2023-05-09T12:44:04.163Z,95662.22
2023-05-09T12:54:10.896Z,95648.91
2023-05-09T13:04:13.304Z,95659.09
2023-05-09T13:14:17.144Z,95647.97
2023-05-09T13:24:19.601Z,95622.50
2023-05-09T13:34:23.377Z,95603.31
2023-05-09T13:44:25.778Z,95585.00
2023-05-09T13:54:30.137Z,95566.56
2023-05-09T14:04:32.864Z,95563.06
2023-05-09T14:14:36.713Z,95539.94
2023-05-09T14:24:39.252Z,95521.13
2023-05-09T14:34:43.227Z,95517.22
2023-05-09T14:44:47.274Z,95499.00
2023-05-09T14:54:51.039Z,95491.00
2023-05-09T15:04:55.831Z,95479.94
2023-05-09T15:15:12.493Z,95472.03
2023-05-09T15:25:15.008Z,95461.31
2023-05-09T15:35:19.117Z,95452.00
2023-05-09T15:45:21.523Z,95438.69
2023-05-09T15:55:27.946Z,95432.31
2023-05-09T16:05:31.162Z,95428.81
2023-05-09T16:15:35.085Z,95414.88
2023-05-09T16:25:37.564Z,95411.88
2023-05-09T16:35:41.334Z,95409.75
2023-05-09T16:45:44.109Z,95398.53
2023-05-09T16:55:47.904Z,95400.34
2023-05-09T17:05:51.260Z,95402.31
2023-05-09T17:15:55.018Z,95428.63
2023-05-09T17:25:57.534Z,95432.78
2023-05-09T17:36:01.538Z,95433.38
2023-05-09T17:46:04.772Z,95423.19
2023-05-09T17:56:08.670Z,95423.75
2023-05-09T18:06:11.084Z,95421.78
2023-05-09T18:16:14.887Z,95428.41
2023-05-09T18:26:17.355Z,95431.63
2023-05-09T18:36:21.148Z,95440.97
2023-05-09T18:46:23.950Z,95456.22
2023-05-09T18:56:27.760Z,95463.16
2023-05-09T19:06:30.206Z,95459.13
2023-05-09T19:16:34.068Z,95462.09
2023-05-09T19:26:36.558Z,95473.56
2023-05-09T19:36:40.297Z,95470.41
2023-05-09T19:46:43.803Z,95482.25
2023-05-09T19:56:47.658Z,95489.13
2023-05-09T20:06:50.027Z,95480.16
2023-05-09T20:16:53.786Z,95485.88
2023-05-09T20:26:56.168Z,95478.38
2023-05-09T20:37:00.016Z,95469.97
2023-05-09T20:47:02.657Z,95463.53
2023-05-09T20:57:06.580Z,95461.69
2023-05-09T21:07:09.889Z,95463.97
2023-05-09T21:17:13.862Z,95454.91
2023-05-09T21:27:16.373Z,95457.13
2023-05-09T21:37:20.094Z,95444.22
2023-05-09T21:47:22.704Z,95448.25
2023-05-09T21:57:26.633Z,95438.72
2023-05-09T22:07:29.547Z,95437.47
2023-05-09T22:17:33.346Z,95441.09
2023-05-09T22:27:35.932Z,95440.34
2023-05-09T22:37:39.922Z,95445.00
2023-05-09T22:47:42.381Z,95437.75
2023-05-09T22:57:46.166Z,95452.53
2023-05-09T23:07:48.594Z,95454.47
2023-05-09T23:17:52.365Z,95445.00
2023-05-09T23:27:54.830Z,95450.63
2023-05-09T23:37:58.576Z,95442.50
2023-05-09T23:48:01.067Z,95442.28
2023-05-09T23:58:04.849Z,95431.94
